sensor_id;sensor_type;location;lat;lon;timestamp;temperature;humidity
19622;DHT22;9958;33.196;-97.114;2022-10-31T00:01:28;18.70;99.90
19622;DHT22;9958;33.196;-97.114;2022-10-31T00:03:57;18.60;99.90
19622;DHT22;9958;33.196;-97.114;2022-10-31T00:06:27;18.50;99.90
19622;DHT22;9958;33.196;-97.114;2022-10-31T00:08:56;18.40;99.90
19622;DHT22;9958;33.196;-97.114;2022-10-31T00:11:25;18.30;99.90
19622;DHT22;9958;33.196;-97.114;2022-10-31T00:13:53;18.20;99.90
19622;DHT22;9958;33.196;-97.114;2022-10-31T00:16:23;18.10;99.90
19622;DHT22;9958;33.196;-97.114;2022-10-31T00:18:52;18.00;99.90
19622;DHT22;9958;33.196;-97.114;2022-10-31T00:21:21;17.90;99.90
19622;DHT22;9958;33.196;-97.114;2022-10-31T00:23:51;17.80;99.90
19622;DHT22;9958;33.196;-97.114;2022-10-31T00:26:20;17.70;99.90
19622;DHT22;9958;33.196;-97.114;2022-10-31T00:28:48;17.60;99.90
19622;DHT22;9958;33.196;-97.114;2022-10-31T00:31:17;17.50;99.90
19622;DHT22;9958;33.196;-97.114;2022-10-31T00:33:46;17.40;99.90
19622;DHT22;9958;33.196;-97.114;2022-10-31T00:36:15;17.40;99.90
19622;DHT22;9958;33.196;-97.114;2022-10-31T00:38:45;17.30;99.90
19622;DHT22;9958;33.196;-97.114;2022-10-31T00:41:16;17.20;99.90
19622;DHT22;9958;33.196;-97.114;2022-10-31T00:43:47;17.10;99.90
19622;DHT22;9958;33.196;-97.114;2022-10-31T00:46:15;17.00;99.90
19622;DHT22;9958;33.196;-97.114;2022-10-31T00:48:43;17.00;99.90
19622;DHT22;9958;33.196;-97.114;2022-10-31T00:51:12;16.90;99.90
19622;DHT22;9958;33.196;-97.114;2022-10-31T00:53:40;16.80;99.90
19622;DHT22;9958;33.196;-97.114;2022-10-31T00:56:08;16.80;99.90
19622;DHT22;9958;33.196;-97.114;2022-10-31T00:58:38;16.70;99.90
19622;DHT22;9958;33.196;-97.114;2022-10-31T01:01:07;16.70;99.90
19622;DHT22;9958;33.196;-97.114;2022-10-31T01:03:37;16.60;99.90
19622;DHT22;9958;33.196;-97.114;2022-10-31T01:06:08;16.50;99.90
19622;DHT22;9958;33.196;-97.114;2022-10-31T01:08:37;16.50;99.90
19622;DHT22;9958;33.196;-97.114;2022-10-31T01:11:08;16.40;99.90
19622;DHT22;9958;33.196;-97.114;2022-10-31T01:13:39;16.40;99.90
19622;DHT22;9958;33.196;-97.114;2022-10-31T01:16:10;16.40;99.90
19622;DHT22;9958;33.196;-97.114;2022-10-31T01:18:38;16.30;99.90
19622;DHT22;9958;33.196;-97.114;2022-10-31T01:21:08;16.30;99.90
19622;DHT22;9958;33.196;-97.114;2022-10-31T01:23:37;16.20;99.90
19622;DHT22;9958;33.196;-97.114;2022-10-31T01:26:07;16.10;99.90
19622;DHT22;9958;33.196;-97.114;2022-10-31T01:28:38;16.10;99.90
19622;DHT22;9958;33.196;-97.114;2022-10-31T01:31:08;16.10;99.90
19622;DHT22;9958;33.196;-97.114;2022-10-31T01:33:37;16.00;99.90
19622;DHT22;9958;33.196;-97.114;2022-10-31T01:36:16;15.90;99.90
19622;DHT22;9958;33.196;-97.114;2022-10-31T01:38:48;15.90;99.90
19622;DHT22;9958;33.196;-97.114;2022-10-31T01:41:19;15.90;99.90
19622;DHT22;9958;33.196;-97.114;2022-10-31T01:43:52;15.80;99.90
19622;DHT22;9958;33.196;-97.114;2022-10-31T01:46:23;15.80;99.90
19622;DHT22;9958;33.196;-97.114;2022-10-31T01:48:53;15.70;99.90
19622;DHT22;9958;33.196;-97.114;2022-10-31T01:51:25;15.70;99.90
19622;DHT22;9958;33.196;-97.114;2022-10-31T01:53:57;15.60;99.90
19622;DHT22;9958;33.196;-97.114;2022-10-31T01:56:26;15.60;99.90
19622;DHT22;9958;33.196;-97.114;2022-10-31T01:58:58;15.50;99.90
19622;DHT22;9958;33.196;-97.114;2022-10-31T02:01:28;15.50;99.90
19622;DHT22;9958;33.196;-97.114;2022-10-31T02:03:56;15.50;99.90
19622;DHT22;9958;33.196;-97.114;2022-10-31T02:06:33;15.50;99.90
19622;DHT22;9958;33.196;-97.114;2022-10-31T02:09:04;15.40;99.90
19622;DHT22;9958;33.196;-97.114;2022-10-31T02:11:33;15.40;99.90
19622;DHT22;9958;33.196;-97.114;2022-10-31T02:14:04;15.40;99.90
19622;DHT22;9958;33.196;-97.114;2022-10-31T02:16:32;15.30;99.90
19622;DHT22;9958;33.196;-97.114;2022-10-31T02:19:01;15.30;99.90
19622;DHT22;9958;33.196;-97.114;2022-10-31T02:21:36;15.30;99.90
19622;DHT22;9958;33.196;-97.114;2022-10-31T02:27:32;15.20;99.90
19622;DHT22;9958;33.196;-97.114;2022-10-31T02:30:11;15.20;99.90
19622;DHT22;9958;33.196;-97.114;2022-10-31T02:32:56;15.10;99.90
19622;DHT22;9958;33.196;-97.114;2022-10-31T02:35:39;15.10;99.90
19622;DHT22;9958;33.196;-97.114;2022-10-31T02:38:18;15.10;99.90
19622;DHT22;9958;33.196;-97.114;2022-10-31T02:40:56;15.00;99.90
19622;DHT22;9958;33.196;-97.114;2022-10-31T02:43:31;15.00;99.90
19622;DHT22;9958;33.196;-97.114;2022-10-31T02:46:07;14.90;99.90
19622;DHT22;9958;33.196;-97.114;2022-10-31T02:48:39;14.90;99.90
19622;DHT22;9958;33.196;-97.114;2022-10-31T02:51:10;14.90;99.90
19622;DHT22;9958;33.196;-97.114;2022-10-31T02:53:39;14.90;99.90
19622;DHT22;9958;33.196;-97.114;2022-10-31T02:56:11;14.80;99.90
19622;DHT22;9958;33.196;-97.114;2022-10-31T02:58:43;14.80;99.90
19622;DHT22;9958;33.196;-97.114;2022-10-31T03:04:37;14.70;99.90
19622;DHT22;9958;33.196;-97.114;2022-10-31T03:07:17;14.70;99.90
19622;DHT22;9958;33.196;-97.114;2022-10-31T03:09:53;14.70;99.90
19622;DHT22;9958;33.196;-97.114;2022-10-31T03:12:28;14.60;99.90
19622;DHT22;9958;33.196;-97.114;2022-10-31T03:15:05;14.60;99.90
19622;DHT22;9958;33.196;-97.114;2022-10-31T03:17:41;14.60;99.90
19622;DHT22;9958;33.196;-97.114;2022-10-31T03:20:16;14.50;99.90
19622;DHT22;9958;33.196;-97.114;2022-10-31T03:22:47;14.50;99.90
19622;DHT22;9958;33.196;-97.114;2022-10-31T03:25:17;14.50;99.90
19622;DHT22;9958;33.196;-97.114;2022-10-31T03:27:47;14.50;99.90
19622;DHT22;9958;33.196;-97.114;2022-10-31T03:30:16;14.50;99.90
19622;DHT22;9958;33.196;-97.114;2022-10-31T03:32:47;14.40;99.90
19622;DHT22;9958;33.196;-97.114;2022-10-31T03:35:20;14.40;99.90
19622;DHT22;9958;33.196;-97.114;2022-10-31T03:37:53;14.40;99.90
19622;DHT22;9958;33.196;-97.114;2022-10-31T03:40:23;14.40;99.90
19622;DHT22;9958;33.196;-97.114;2022-10-31T03:42:56;14.30;99.90
19622;DHT22;9958;33.196;-97.114;2022-10-31T03:45:28;14.30;99.90
19622;DHT22;9958;33.196;-97.114;2022-10-31T03:47:58;14.30;99.90
19622;DHT22;9958;33.196;-97.114;2022-10-31T03:50:35;14.30;99.90
19622;DHT22;9958;33.196;-97.114;2022-10-31T03:53:11;14.20;99.90
19622;DHT22;9958;33.196;-97.114;2022-10-31T03:55:45;14.20;99.90
19622;DHT22;9958;33.196;-97.114;2022-10-31T03:58:20;14.20;99.90
19622;DHT22;9958;33.196;-97.114;2022-10-31T04:00:50;14.10;99.90
19622;DHT22;9958;33.196;-97.114;2022-10-31T04:03:22;14.10;99.90
19622;DHT22;9958;33.196;-97.114;2022-10-31T04:05:54;14.10;99.90
19622;DHT22;9958;33.196;-97.114;2022-10-31T04:08:28;14.10;99.90
19622;DHT22;9958;33.196;-97.114;2022-10-31T04:10:59;14.00;99.90
19622;DHT22;9958;33.196;-97.114;2022-10-31T04:13:29;14.00;99.90
19622;DHT22;9958;33.196;-97.114;2022-10-31T04:15:59;14.00;99.90
19622;DHT22;9958;33.196;-97.114;2022-10-31T04:18:27;14.00;99.90
19622;DHT22;9958;33.196;-97.114;2022-10-31T04:21:05;14.00;99.90
19622;DHT22;9958;33.196;-97.114;2022-10-31T04:23:35;14.00;99.90
19622;DHT22;9958;33.196;-97.114;2022-10-31T04:26:04;13.90;99.90
19622;DHT22;9958;33.196;-97.114;2022-10-31T04:28:32;13.90;99.90
19622;DHT22;9958;33.196;-97.114;2022-10-31T04:31:00;13.90;99.90
19622;DHT22;9958;33.196;-97.114;2022-10-31T04:33:28;13.90;99.90
19622;DHT22;9958;33.196;-97.114;2022-10-31T04:35:57;13.90;99.90
19622;DHT22;9958;33.196;-97.114;2022-10-31T04:38:27;13.90;99.90
19622;DHT22;9958;33.196;-97.114;2022-10-31T04:40:55;13.90;99.90
19622;DHT22;9958;33.196;-97.114;2022-10-31T04:43:23;13.90;99.90
19622;DHT22;9958;33.196;-97.114;2022-10-31T04:45:52;13.80;99.90
19622;DHT22;9958;33.196;-97.114;2022-10-31T04:48:20;13.80;99.90
19622;DHT22;9958;33.196;-97.114;2022-10-31T04:50:48;13.80;99.90
19622;DHT22;9958;33.196;-97.114;2022-10-31T04:53:16;13.80;99.90
19622;DHT22;9958;33.196;-97.114;2022-10-31T04:55:46;13.80;99.90
19622;DHT22;9958;33.196;-97.114;2022-10-31T04:58:14;13.80;99.90
19622;DHT22;9958;33.196;-97.114;2022-10-31T05:00:43;13.70;99.90
19622;DHT22;9958;33.196;-97.114;2022-10-31T05:03:11;13.70;99.90
19622;DHT22;9958;33.196;-97.114;2022-10-31T05:05:39;13.70;99.90
19622;DHT22;9958;33.196;-97.114;2022-10-31T05:08:07;13.70;99.90
19622;DHT22;9958;33.196;-97.114;2022-10-31T05:10:36;13.70;99.90
19622;DHT22;9958;33.196;-97.114;2022-10-31T05:13:05;13.70;99.90
19622;DHT22;9958;33.196;-97.114;2022-10-31T05:15:34;13.70;99.90
19622;DHT22;9958;33.196;-97.114;2022-10-31T05:18:02;13.70;99.90
19622;DHT22;9958;33.196;-97.114;2022-10-31T05:20:31;13.70;99.90
19622;DHT22;9958;33.196;-97.114;2022-10-31T05:23:00;13.70;99.90
19622;DHT22;9958;33.196;-97.114;2022-10-31T05:25:28;13.70;99.90
19622;DHT22;9958;33.196;-97.114;2022-10-31T05:27:57;13.70;99.90
19622;DHT22;9958;33.196;-97.114;2022-10-31T05:30:29;13.80;99.90
19622;DHT22;9958;33.196;-97.114;2022-10-31T05:32:58;13.80;99.90
19622;DHT22;9958;33.196;-97.114;2022-10-31T05:35:29;13.80;99.90
19622;DHT22;9958;33.196;-97.114;2022-10-31T05:37:57;13.80;99.90
19622;DHT22;9958;33.196;-97.114;2022-10-31T05:40:26;13.80;99.90
19622;DHT22;9958;33.196;-97.114;2022-10-31T05:42:55;13.80;99.90
19622;DHT22;9958;33.196;-97.114;2022-10-31T05:45:26;13.70;99.90
19622;DHT22;9958;33.196;-97.114;2022-10-31T05:47:55;13.70;99.90
19622;DHT22;9958;33.196;-97.114;2022-10-31T05:50:24;13.70;99.90
19622;DHT22;9958;33.196;-97.114;2022-10-31T05:52:56;13.60;99.90
19622;DHT22;9958;33.196;-97.114;2022-10-31T05:55:25;13.60;99.90
19622;DHT22;9958;33.196;-97.114;2022-10-31T05:57:53;13.60;99.90
19622;DHT22;9958;33.196;-97.114;2022-10-31T06:00:23;13.50;99.90
19622;DHT22;9958;33.196;-97.114;2022-10-31T06:02:59;13.50;99.90
19622;DHT22;9958;33.196;-97.114;2022-10-31T06:05:28;13.50;99.90
19622;DHT22;9958;33.196;-97.114;2022-10-31T06:07:57;13.40;99.90
19622;DHT22;9958;33.196;-97.114;2022-10-31T06:10:26;13.40;99.90
19622;DHT22;9958;33.196;-97.114;2022-10-31T06:12:54;13.30;99.90
19622;DHT22;9958;33.196;-97.114;2022-10-31T06:15:22;13.30;99.90
19622;DHT22;9958;33.196;-97.114;2022-10-31T06:18:00;13.20;99.90
19622;DHT22;9958;33.196;-97.114;2022-10-31T06:20:28;13.10;99.90
19622;DHT22;9958;33.196;-97.114;2022-10-31T06:22:57;13.10;99.90
19622;DHT22;9958;33.196;-97.114;2022-10-31T06:25:25;13.00;99.90
19622;DHT22;9958;33.196;-97.114;2022-10-31T06:27:53;13.00;99.90
19622;DHT22;9958;33.196;-97.114;2022-10-31T06:30:22;12.90;99.90
19622;DHT22;9958;33.196;-97.114;2022-10-31T06:32:50;12.90;99.90
19622;DHT22;9958;33.196;-97.114;2022-10-31T06:35:20;12.80;99.90
19622;DHT22;9958;33.196;-97.114;2022-10-31T06:37:51;12.70;99.90
19622;DHT22;9958;33.196;-97.114;2022-10-31T06:40:20;12.70;99.90
19622;DHT22;9958;33.196;-97.114;2022-10-31T06:42:56;12.60;99.90
19622;DHT22;9958;33.196;-97.114;2022-10-31T06:45:25;12.60;99.90
19622;DHT22;9958;33.196;-97.114;2022-10-31T06:47:53;12.50;99.90
19622;DHT22;9958;33.196;-97.114;2022-10-31T06:50:24;12.50;99.90
19622;DHT22;9958;33.196;-97.114;2022-10-31T06:52:52;12.40;99.90
19622;DHT22;9958;33.196;-97.114;2022-10-31T06:55:21;12.40;99.90
19622;DHT22;9958;33.196;-97.114;2022-10-31T06:57:50;12.40;99.90
19622;DHT22;9958;33.196;-97.114;2022-10-31T07:00:19;12.30;99.90
19622;DHT22;9958;33.196;-97.114;2022-10-31T07:02:55;12.30;99.90
19622;DHT22;9958;33.196;-97.114;2022-10-31T07:05:26;12.20;99.90
19622;DHT22;9958;33.196;-97.114;2022-10-31T07:07:54;12.20;99.90
19622;DHT22;9958;33.196;-97.114;2022-10-31T07:10:24;12.20;99.90
19622;DHT22;9958;33.196;-97.114;2022-10-31T07:12:55;12.10;99.90
19622;DHT22;9958;33.196;-97.114;2022-10-31T07:15:23;12.10;99.90
19622;DHT22;9958;33.196;-97.114;2022-10-31T07:17:52;12.10;99.90
19622;DHT22;9958;33.196;-97.114;2022-10-31T07:20:20;12.00;99.90
19622;DHT22;9958;33.196;-97.114;2022-10-31T07:22:50;12.00;99.90
19622;DHT22;9958;33.196;-97.114;2022-10-31T07:25:18;11.90;99.90
19622;DHT22;9958;33.196;-97.114;2022-10-31T07:27:46;11.90;99.90
19622;DHT22;9958;33.196;-97.114;2022-10-31T07:30:15;11.90;99.90
19622;DHT22;9958;33.196;-97.114;2022-10-31T07:32:46;11.80;99.90
19622;DHT22;9958;33.196;-97.114;2022-10-31T07:35:15;11.80;99.90
19622;DHT22;9958;33.196;-97.114;2022-10-31T07:37:44;11.80;99.90
19622;DHT22;9958;33.196;-97.114;2022-10-31T07:40:14;11.70;99.90
19622;DHT22;9958;33.196;-97.114;2022-10-31T07:42:43;11.70;99.90
19622;DHT22;9958;33.196;-97.114;2022-10-31T07:45:13;11.70;99.90
19622;DHT22;9958;33.196;-97.114;2022-10-31T07:47:42;11.70;99.90
19622;DHT22;9958;33.196;-97.114;2022-10-31T07:50:12;11.60;99.90
19622;DHT22;9958;33.196;-97.114;2022-10-31T07:52:40;11.60;99.90
19622;DHT22;9958;33.196;-97.114;2022-10-31T07:55:09;11.60;99.90
19622;DHT22;9958;33.196;-97.114;2022-10-31T07:57:39;11.60;99.90
19622;DHT22;9958;33.196;-97.114;2022-10-31T08:00:09;11.60;99.90
19622;DHT22;9958;33.196;-97.114;2022-10-31T08:02:38;11.50;99.90
19622;DHT22;9958;33.196;-97.114;2022-10-31T08:05:06;11.50;99.90
19622;DHT22;9958;33.196;-97.114;2022-10-31T08:07:36;11.50;99.90
19622;DHT22;9958;33.196;-97.114;2022-10-31T08:10:05;11.50;99.90
19622;DHT22;9958;33.196;-97.114;2022-10-31T08:12:33;11.50;99.90
19622;DHT22;9958;33.196;-97.114;2022-10-31T08:15:04;11.40;99.90
19622;DHT22;9958;33.196;-97.114;2022-10-31T08:17:35;11.40;99.90
19622;DHT22;9958;33.196;-97.114;2022-10-31T08:20:04;11.40;99.90
19622;DHT22;9958;33.196;-97.114;2022-10-31T08:22:33;11.40;99.90
19622;DHT22;9958;33.196;-97.114;2022-10-31T08:25:01;11.40;99.90
19622;DHT22;9958;33.196;-97.114;2022-10-31T08:27:29;11.40;99.90
19622;DHT22;9958;33.196;-97.114;2022-10-31T08:29:57;11.40;99.90
19622;DHT22;9958;33.196;-97.114;2022-10-31T08:32:27;11.40;99.90
19622;DHT22;9958;33.196;-97.114;2022-10-31T08:34:56;11.40;99.90
19622;DHT22;9958;33.196;-97.114;2022-10-31T08:37:25;11.30;99.90
19622;DHT22;9958;33.196;-97.114;2022-10-31T08:39:53;11.30;99.90
19622;DHT22;9958;33.196;-97.114;2022-10-31T08:42:21;11.30;99.90
19622;DHT22;9958;33.196;-97.114;2022-10-31T08:44:49;11.30;99.90
19622;DHT22;9958;33.196;-97.114;2022-10-31T08:47:18;11.30;99.90
19622;DHT22;9958;33.196;-97.114;2022-10-31T08:49:47;11.20;99.90
19622;DHT22;9958;33.196;-97.114;2022-10-31T08:52:16;11.30;99.90
19622;DHT22;9958;33.196;-97.114;2022-10-31T08:54:44;11.30;99.90
19622;DHT22;9958;33.196;-97.114;2022-10-31T08:57:12;11.30;99.90
19622;DHT22;9958;33.196;-97.114;2022-10-31T08:59:40;11.30;99.90
19622;DHT22;9958;33.196;-97.114;2022-10-31T09:02:08;11.30;99.90
19622;DHT22;9958;33.196;-97.114;2022-10-31T09:04:37;11.20;99.90
19622;DHT22;9958;33.196;-97.114;2022-10-31T09:07:06;11.20;99.90
19622;DHT22;9958;33.196;-97.114;2022-10-31T09:09:35;11.20;99.90
19622;DHT22;9958;33.196;-97.114;2022-10-31T09:12:03;11.20;99.90
19622;DHT22;9958;33.196;-97.114;2022-10-31T09:14:31;11.20;99.90
19622;DHT22;9958;33.196;-97.114;2022-10-31T09:17:00;11.20;99.90
19622;DHT22;9958;33.196;-97.114;2022-10-31T09:19:28;11.10;99.90
19622;DHT22;9958;33.196;-97.114;2022-10-31T09:21:56;11.10;99.90
19622;DHT22;9958;33.196;-97.114;2022-10-31T09:24:26;11.10;99.90
19622;DHT22;9958;33.196;-97.114;2022-10-31T09:26:54;11.10;99.90
19622;DHT22;9958;33.196;-97.114;2022-10-31T09:29:22;11.10;99.90
19622;DHT22;9958;33.196;-97.114;2022-10-31T09:31:51;11.10;99.90
19622;DHT22;9958;33.196;-97.114;2022-10-31T09:34:19;11.00;99.90
19622;DHT22;9958;33.196;-97.114;2022-10-31T09:36:47;11.00;99.90
19622;DHT22;9958;33.196;-97.114;2022-10-31T09:39:15;11.00;99.90
19622;DHT22;9958;33.196;-97.114;2022-10-31T09:42:03;11.00;99.90
19622;DHT22;9958;33.196;-97.114;2022-10-31T09:44:43;11.00;99.90
19622;DHT22;9958;33.196;-97.114;2022-10-31T09:47:20;10.90;99.90
19622;DHT22;9958;33.196;-97.114;2022-10-31T09:50:02;10.90;99.90
19622;DHT22;9958;33.196;-97.114;2022-10-31T09:52:36;10.90;99.90
19622;DHT22;9958;33.196;-97.114;2022-10-31T09:55:13;10.90;99.90
19622;DHT22;9958;33.196;-97.114;2022-10-31T09:57:44;10.90;99.90
19622;DHT22;9958;33.196;-97.114;2022-10-31T10:00:17;10.90;99.90
19622;DHT22;9958;33.196;-97.114;2022-10-31T10:02:49;10.90;99.90
19622;DHT22;9958;33.196;-97.114;2022-10-31T10:05:21;10.90;99.90
19622;DHT22;9958;33.196;-97.114;2022-10-31T10:07:55;10.90;99.90
19622;DHT22;9958;33.196;-97.114;2022-10-31T10:10:30;10.90;99.90
19622;DHT22;9958;33.196;-97.114;2022-10-31T10:13:20;10.90;99.90
19622;DHT22;9958;33.196;-97.114;2022-10-31T10:16:09;10.80;99.90
19622;DHT22;9958;33.196;-97.114;2022-10-31T10:18:52;10.80;99.90
19622;DHT22;9958;33.196;-97.114;2022-10-31T10:21:31;10.80;99.90
19622;DHT22;9958;33.196;-97.114;2022-10-31T10:24:12;10.80;99.90
19622;DHT22;9958;33.196;-97.114;2022-10-31T10:26:49;10.80;99.90
19622;DHT22;9958;33.196;-97.114;2022-10-31T10:29:31;10.80;99.90
19622;DHT22;9958;33.196;-97.114;2022-10-31T10:32:03;10.80;99.90
19622;DHT22;9958;33.196;-97.114;2022-10-31T10:34:36;10.80;99.90
19622;DHT22;9958;33.196;-97.114;2022-10-31T10:37:10;10.80;99.90
19622;DHT22;9958;33.196;-97.114;2022-10-31T10:39:45;10.80;99.90
19622;DHT22;9958;33.196;-97.114;2022-10-31T10:42:15;10.70;99.90
19622;DHT22;9958;33.196;-97.114;2022-10-31T10:45:13;10.70;99.90
19622;DHT22;9958;33.196;-97.114;2022-10-31T10:48:06;10.70;99.90
19622;DHT22;9958;33.196;-97.114;2022-10-31T10:50:39;10.70;99.90
19622;DHT22;9958;33.196;-97.114;2022-10-31T10:53:20;10.70;99.90
19622;DHT22;9958;33.196;-97.114;2022-10-31T10:56:04;10.60;99.90
19622;DHT22;9958;33.196;-97.114;2022-10-31T10:58:38;10.60;99.90
19622;DHT22;9958;33.196;-97.114;2022-10-31T11:01:12;10.60;99.90
19622;DHT22;9958;33.196;-97.114;2022-10-31T11:03:40;10.50;99.90
19622;DHT22;9958;33.196;-97.114;2022-10-31T11:06:18;10.60;99.90
19622;DHT22;9958;33.196;-97.114;2022-10-31T11:08:48;10.50;99.90
19622;DHT22;9958;33.196;-97.114;2022-10-31T11:11:24;10.50;99.90
19622;DHT22;9958;33.196;-97.114;2022-10-31T11:14:00;10.50;99.90
19622;DHT22;9958;33.196;-97.114;2022-10-31T11:16:33;10.50;99.90
19622;DHT22;9958;33.196;-97.114;2022-10-31T11:19:12;10.50;99.90
19622;DHT22;9958;33.196;-97.114;2022-10-31T11:21:43;10.40;99.90
19622;DHT22;9958;33.196;-97.114;2022-10-31T11:24:16;10.40;99.90
19622;DHT22;9958;33.196;-97.114;2022-10-31T11:26:46;10.40;99.90
19622;DHT22;9958;33.196;-97.114;2022-10-31T11:29:17;10.40;99.90
19622;DHT22;9958;33.196;-97.114;2022-10-31T11:31:51;10.40;99.90
19622;DHT22;9958;33.196;-97.114;2022-10-31T11:34:27;10.40;99.90
19622;DHT22;9958;33.196;-97.114;2022-10-31T11:37:01;10.30;99.90
19622;DHT22;9958;33.196;-97.114;2022-10-31T11:39:30;10.30;99.90
19622;DHT22;9958;33.196;-97.114;2022-10-31T11:42:02;10.30;99.90
19622;DHT22;9958;33.196;-97.114;2022-10-31T11:44:31;10.30;99.90
19622;DHT22;9958;33.196;-97.114;2022-10-31T11:47:03;10.30;99.90
19622;DHT22;9958;33.196;-97.114;2022-10-31T11:49:35;10.30;99.90
19622;DHT22;9958;33.196;-97.114;2022-10-31T11:52:06;10.30;99.90
19622;DHT22;9958;33.196;-97.114;2022-10-31T11:54:40;10.20;99.90
19622;DHT22;9958;33.196;-97.114;2022-10-31T11:57:23;10.20;99.90
19622;DHT22;9958;33.196;-97.114;2022-10-31T11:59:53;10.20;99.90
19622;DHT22;9958;33.196;-97.114;2022-10-31T12:02:24;10.20;99.90
19622;DHT22;9958;33.196;-97.114;2022-10-31T12:04:59;10.20;99.90
19622;DHT22;9958;33.196;-97.114;2022-10-31T12:07:30;10.20;99.90
19622;DHT22;9958;33.196;-97.114;2022-10-31T12:09:58;10.10;99.90
19622;DHT22;9958;33.196;-97.114;2022-10-31T12:12:52;10.10;99.90
19622;DHT22;9958;33.196;-97.114;2022-10-31T12:15:33;10.10;99.90
19622;DHT22;9958;33.196;-97.114;2022-10-31T12:18:35;10.10;99.90
19622;DHT22;9958;33.196;-97.114;2022-10-31T12:21:15;10.10;99.90
19622;DHT22;9958;33.196;-97.114;2022-10-31T12:23:57;10.10;99.90
19622;DHT22;9958;33.196;-97.114;2022-10-31T12:26:33;10.10;99.90
19622;DHT22;9958;33.196;-97.114;2022-10-31T12:29:26;10.00;99.90
19622;DHT22;9958;33.196;-97.114;2022-10-31T12:32:11;10.10;99.90
19622;DHT22;9958;33.196;-97.114;2022-10-31T12:34:52;10.00;99.90
19622;DHT22;9958;33.196;-97.114;2022-10-31T12:37:32;10.00;99.90
19622;DHT22;9958;33.196;-97.114;2022-10-31T12:40:18;10.00;99.90
19622;DHT22;9958;33.196;-97.114;2022-10-31T12:42:59;10.00;99.90
19622;DHT22;9958;33.196;-97.114;2022-10-31T12:45:39;10.00;99.90
19622;DHT22;9958;33.196;-97.114;2022-10-31T12:51:12;10.00;99.90
19622;DHT22;9958;33.196;-97.114;2022-10-31T12:53:51;10.00;99.90
19622;DHT22;9958;33.196;-97.114;2022-10-31T12:56:32;10.00;99.90
19622;DHT22;9958;33.196;-97.114;2022-10-31T12:59:04;10.00;99.90
19622;DHT22;9958;33.196;-97.114;2022-10-31T13:01:36;10.00;99.90
19622;DHT22;9958;33.196;-97.114;2022-10-31T13:04:14;10.00;99.90
19622;DHT22;9958;33.196;-97.114;2022-10-31T13:06:48;10.00;99.90
19622;DHT22;9958;33.196;-97.114;2022-10-31T13:09:23;10.10;99.90
19622;DHT22;9958;33.196;-97.114;2022-10-31T13:11:58;10.10;99.90
19622;DHT22;9958;33.196;-97.114;2022-10-31T13:14:30;10.20;99.90
19622;DHT22;9958;33.196;-97.114;2022-10-31T13:17:01;10.20;99.90
19622;DHT22;9958;33.196;-97.114;2022-10-31T13:19:33;10.20;99.90
19622;DHT22;9958;33.196;-97.114;2022-10-31T13:22:08;10.30;99.90
19622;DHT22;9958;33.196;-97.114;2022-10-31T13:24:40;10.30;99.90
19622;DHT22;9958;33.196;-97.114;2022-10-31T13:27:15;10.40;99.90
19622;DHT22;9958;33.196;-97.114;2022-10-31T13:30:02;10.40;99.90
19622;DHT22;9958;33.196;-97.114;2022-10-31T13:32:44;10.50;99.90
19622;DHT22;9958;33.196;-97.114;2022-10-31T13:35:20;10.60;99.90
19622;DHT22;9958;33.196;-97.114;2022-10-31T13:37:58;10.70;99.90
19622;DHT22;9958;33.196;-97.114;2022-10-31T13:40:35;10.70;99.90
19622;DHT22;9958;33.196;-97.114;2022-10-31T13:43:13;10.80;99.90
19622;DHT22;9958;33.196;-97.114;2022-10-31T13:45:49;10.90;99.90
19622;DHT22;9958;33.196;-97.114;2022-10-31T13:48:31;11.00;99.90
19622;DHT22;9958;33.196;-97.114;2022-10-31T13:51:02;11.10;99.90
19622;DHT22;9958;33.196;-97.114;2022-10-31T13:53:42;11.20;99.90
19622;DHT22;9958;33.196;-97.114;2022-10-31T13:56:18;11.30;99.90
19622;DHT22;9958;33.196;-97.114;2022-10-31T13:59:15;11.40;99.90
19622;DHT22;9958;33.196;-97.114;2022-10-31T14:01:54;11.50;99.90
19622;DHT22;9958;33.196;-97.114;2022-10-31T14:04:24;11.60;99.90
19622;DHT22;9958;33.196;-97.114;2022-10-31T14:06:57;11.70;99.90
19622;DHT22;9958;33.196;-97.114;2022-10-31T14:09:33;11.90;99.90
19622;DHT22;9958;33.196;-97.114;2022-10-31T14:12:05;12.00;99.90
19622;DHT22;9958;33.196;-97.114;2022-10-31T14:14:46;12.10;99.90
19622;DHT22;9958;33.196;-97.114;2022-10-31T14:17:21;12.30;99.90
19622;DHT22;9958;33.196;-97.114;2022-10-31T14:20:03;12.40;99.90
19622;DHT22;9958;33.196;-97.114;2022-10-31T14:22:49;12.60;99.90
19622;DHT22;9958;33.196;-97.114;2022-10-31T14:25:30;12.80;99.90
19622;DHT22;9958;33.196;-97.114;2022-10-31T14:27:59;13.10;99.90
19622;DHT22;9958;33.196;-97.114;2022-10-31T14:30:29;13.30;99.90
19622;DHT22;9958;33.196;-97.114;2022-10-31T14:33:00;13.50;99.90
19622;DHT22;9958;33.196;-97.114;2022-10-31T14:35:42;13.70;99.90
19622;DHT22;9958;33.196;-97.114;2022-10-31T14:38:25;13.90;99.90
19622;DHT22;9958;33.196;-97.114;2022-10-31T14:41:15;14.10;99.90
19622;DHT22;9958;33.196;-97.114;2022-10-31T14:44:08;14.30;99.90
19622;DHT22;9958;33.196;-97.114;2022-10-31T14:46:52;14.40;99.90
19622;DHT22;9958;33.196;-97.114;2022-10-31T14:49:36;14.60;99.90
19622;DHT22;9958;33.196;-97.114;2022-10-31T14:52:12;14.70;99.90
19622;DHT22;9958;33.196;-97.114;2022-10-31T14:54:45;14.80;99.90
19622;DHT22;9958;33.196;-97.114;2022-10-31T14:57:21;14.90;99.90
19622;DHT22;9958;33.196;-97.114;2022-10-31T14:59:52;15.00;99.90
19622;DHT22;9958;33.196;-97.114;2022-10-31T15:02:25;15.10;99.90
19622;DHT22;9958;33.196;-97.114;2022-10-31T15:04:56;15.20;99.90
19622;DHT22;9958;33.196;-97.114;2022-10-31T15:07:26;15.30;99.90
19622;DHT22;9958;33.196;-97.114;2022-10-31T15:09:58;15.40;99.90
19622;DHT22;9958;33.196;-97.114;2022-10-31T15:12:29;15.40;99.90
19622;DHT22;9958;33.196;-97.114;2022-10-31T15:15:09;15.60;99.90
19622;DHT22;9958;33.196;-97.114;2022-10-31T15:17:43;15.60;99.90
19622;DHT22;9958;33.196;-97.114;2022-10-31T15:20:19;15.70;99.90
19622;DHT22;9958;33.196;-97.114;2022-10-31T15:22:48;15.80;99.90
19622;DHT22;9958;33.196;-97.114;2022-10-31T15:25:18;15.90;99.90
19622;DHT22;9958;33.196;-97.114;2022-10-31T15:27:50;15.90;99.90
19622;DHT22;9958;33.196;-97.114;2022-10-31T15:30:20;16.00;99.90
19622;DHT22;9958;33.196;-97.114;2022-10-31T15:32:49;16.10;99.90
19622;DHT22;9958;33.196;-97.114;2022-10-31T15:35:24;16.10;99.90
19622;DHT22;9958;33.196;-97.114;2022-10-31T15:37:53;16.20;99.90
19622;DHT22;9958;33.196;-97.114;2022-10-31T15:40:23;16.30;99.90
19622;DHT22;9958;33.196;-97.114;2022-10-31T15:42:56;16.40;99.90
19622;DHT22;9958;33.196;-97.114;2022-10-31T15:45:25;16.40;99.90
19622;DHT22;9958;33.196;-97.114;2022-10-31T15:47:56;16.50;99.90
19622;DHT22;9958;33.196;-97.114;2022-10-31T15:50:30;16.60;99.90
19622;DHT22;9958;33.196;-97.114;2022-10-31T15:52:59;16.70;99.90
19622;DHT22;9958;33.196;-97.114;2022-10-31T15:55:29;16.90;99.90
19622;DHT22;9958;33.196;-97.114;2022-10-31T15:58:09;17.00;99.90